createdAt,value
2022-09-23T00:01:11.136Z,22.88
2022-09-23T00:06:20.907Z,22.86
2022-09-23T00:11:27.953Z,22.83
2022-09-23T00:16:36.548Z,22.82
2022-09-23T00:21:45.640Z,22.79
2022-09-23T00:26:49.814Z,22.78
2022-09-23T00:31:53.960Z,22.72
2022-09-23T00:36:57.959Z,22.70
2022-09-23T00:42:13.027Z,22.69
2022-09-23T00:47:25.032Z,22.66
2022-09-23T00:52:29.675Z,22.62
2022-09-23T00:57:35.395Z,22.61
2022-09-23T01:02:39.741Z,22.60
2022-09-23T01:07:43.840Z,22.60
2022-09-23T01:12:58.711Z,22.59
2022-09-23T01:18:39.428Z,22.60
2022-09-23T01:24:13.019Z,22.59
2022-09-23T01:29:22.670Z,22.60
2022-09-23T01:34:37.846Z,22.59
2022-09-23T01:40:15.007Z,22.59
2022-09-23T01:45:31.521Z,22.55
2022-09-23T01:50:39.115Z,22.57
2022-09-23T01:55:49.676Z,22.52
2022-09-23T02:01:06.175Z,22.53
2022-09-23T02:06:23.872Z,22.54
2022-09-23T02:11:28.397Z,22.58
2022-09-23T02:16:43.657Z,22.61
2022-09-23T02:21:54.189Z,22.62
2022-09-23T02:27:22.778Z,22.61
2022-09-23T02:32:32.617Z,22.59
2022-09-23T02:37:44.945Z,22.57
2022-09-23T02:42:53.005Z,22.54
2022-09-23T02:48:04.610Z,22.53
2022-09-23T02:53:08.744Z,22.47
2022-09-23T02:58:13.997Z,22.44
2022-09-23T03:03:39.021Z,22.42
2022-09-23T03:08:49.373Z,22.39
2022-09-23T03:14:04.921Z,22.38
2022-09-23T03:19:35.544Z,22.37
2022-09-23T03:24:42.730Z,22.37
2022-09-23T03:29:50.260Z,22.35
2022-09-23T03:34:56.918Z,22.37
2022-09-23T03:40:09.704Z,22.39
2022-09-23T03:45:17.629Z,22.43
2022-09-23T03:50:21.800Z,22.47
2022-09-23T03:55:25.241Z,22.51
2022-09-23T04:00:28.635Z,22.53
2022-09-23T04:05:31.828Z,22.59
2022-09-23T04:10:34.931Z,22.62
2022-09-23T04:15:38.365Z,22.70
2022-09-23T04:20:41.837Z,22.76
2022-09-23T04:25:49.486Z,22.81
2022-09-23T04:30:52.902Z,22.87
2022-09-23T04:35:57.036Z,22.98
2022-09-23T04:41:00.534Z,23.17
2022-09-23T04:46:06.298Z,23.36
2022-09-23T04:51:15.470Z,23.66
2022-09-23T04:56:28.428Z,24.44
2022-09-23T05:01:33.365Z,25.89
2022-09-23T05:06:37.192Z,27.13
2022-09-23T05:11:40.757Z,27.79
2022-09-23T05:16:44.669Z,27.34
2022-09-23T05:21:48.882Z,26.66
2022-09-23T05:26:52.305Z,26.21
2022-09-23T05:31:55.706Z,26.00
2022-09-23T05:36:59.223Z,25.91
2022-09-23T05:42:03.395Z,25.87
2022-09-23T05:47:07.147Z,25.79
2022-09-23T05:52:10.712Z,25.79
2022-09-23T05:57:14.150Z,25.73
2022-09-23T06:02:17.548Z,25.61
2022-09-23T06:07:20.922Z,25.67
2022-09-23T06:12:24.163Z,25.69
2022-09-23T06:17:27.579Z,25.64
2022-09-23T06:22:30.976Z,25.59
2022-09-23T06:27:35.002Z,25.81
2022-09-23T06:32:38.545Z,25.98
2022-09-23T06:37:42.395Z,26.06
2022-09-23T06:42:50.192Z,26.19
2022-09-23T06:48:00.163Z,26.29
2022-09-23T06:53:09.465Z,26.40
2022-09-23T06:58:12.539Z,26.49
2022-09-23T07:03:16.047Z,26.54
2022-09-23T07:08:19.423Z,26.49
2022-09-23T07:13:25.150Z,26.48
2022-09-23T07:18:36.518Z,26.50
2022-09-23T07:23:44.797Z,26.66
2022-09-23T07:28:48.160Z,26.69
2022-09-23T07:33:57.559Z,26.76
2022-09-23T07:39:00.854Z,26.79
2022-09-23T07:44:05.367Z,26.86
2022-09-23T07:49:09.048Z,26.99
2022-09-23T07:54:16.794Z,27.09
2022-09-23T07:59:20.225Z,27.19
2022-09-23T08:04:29.302Z,27.31
2022-09-23T08:09:36.971Z,27.41
2022-09-23T08:14:40.531Z,27.56
2022-09-23T08:19:43.803Z,27.50
2022-09-23T08:24:47.378Z,27.52
2022-09-23T08:29:50.599Z,27.68
2022-09-23T08:34:53.789Z,27.90
2022-09-23T08:39:57.180Z,27.99
2022-09-23T08:45:06.211Z,27.88
2022-09-23T08:50:18.439Z,27.76
2022-09-23T08:55:23.911Z,27.76
2022-09-23T09:00:34.995Z,27.86
2022-09-23T09:05:39.448Z,27.81
2022-09-23T09:10:44.343Z,27.77
2022-09-23T09:16:06.397Z,27.69
2022-09-23T09:21:14.298Z,27.73
2022-09-23T09:26:24.414Z,27.88
2022-09-23T09:31:40.390Z,28.01
2022-09-23T09:37:06.148Z,27.99
2022-09-23T09:42:20.177Z,27.84
2022-09-23T09:47:47.056Z,27.69
2022-09-23T09:52:50.709Z,27.76
2022-09-23T09:57:57.084Z,27.76
2022-09-23T10:03:26.081Z,27.68
2022-09-23T10:08:37.523Z,27.72
2022-09-23T10:13:42.318Z,27.79
2022-09-23T10:18:50.953Z,27.76
2022-09-23T10:23:57.914Z,27.67
2022-09-23T10:29:04.168Z,27.61
2022-09-23T10:34:43.543Z,27.39
2022-09-23T10:39:47.567Z,27.22
2022-09-23T10:45:06.575Z,27.26
2022-09-23T10:50:37.074Z,27.23
2022-09-23T10:55:58.267Z,27.20
2022-09-23T11:01:20.779Z,27.21
2022-09-23T11:06:42.778Z,27.22
2022-09-23T11:12:32.241Z,27.09
2022-09-23T11:18:17.354Z,27.07
2022-09-23T11:23:34.495Z,27.08
2022-09-23T11:28:51.500Z,27.03
2022-09-23T11:34:09.341Z,27.02
2022-09-23T11:39:21.337Z,27.03
2022-09-23T11:44:28.193Z,27.04
2022-09-23T11:49:41.050Z,27.02
2022-09-23T11:54:49.720Z,27.03
2022-09-23T12:00:04.694Z,27.03
2022-09-23T12:05:16.629Z,27.04
2022-09-23T12:10:20.568Z,27.04
2022-09-23T12:15:45.487Z,27.05
2022-09-23T12:20:57.648Z,27.04
2022-09-23T12:26:08.757Z,27.04
2022-09-23T12:31:16.205Z,27.01
2022-09-23T12:36:35.802Z,26.95
2022-09-23T12:41:42.560Z,26.94
2022-09-23T12:46:46.825Z,26.90
2022-09-23T12:52:17.736Z,26.87
2022-09-23T12:57:33.861Z,26.86
2022-09-23T13:02:55.400Z,26.82
2022-09-23T13:08:05.856Z,26.84
2022-09-23T13:13:26.633Z,26.91
2022-09-23T13:18:54.619Z,26.86
2022-09-23T13:24:13.124Z,26.73
2022-09-23T13:29:24.441Z,26.72
2022-09-23T13:34:32.318Z,26.70
2022-09-23T13:39:35.901Z,26.61
2022-09-23T13:44:40.888Z,26.48
2022-09-23T13:49:44.676Z,26.38
2022-09-23T13:54:50.977Z,26.24
2022-09-23T14:00:16.956Z,26.19
2022-09-23T14:05:25.350Z,26.07
2022-09-23T14:10:28.678Z,26.02
2022-09-23T14:15:36.984Z,25.94
2022-09-23T14:20:50.218Z,25.90
2022-09-23T14:25:55.456Z,25.84
2022-09-23T14:30:59.383Z,25.78
2022-09-23T14:36:09.626Z,25.73
2022-09-23T14:41:21.203Z,25.64
2022-09-23T14:46:27.598Z,25.54
2022-09-23T14:51:43.141Z,25.44
2022-09-23T14:56:47.580Z,25.33
2022-09-23T15:01:51.711Z,25.21
2022-09-23T15:07:05.869Z,25.11
2022-09-23T15:12:17.169Z,24.98
2022-09-23T15:17:34.798Z,24.88
2022-09-23T15:22:46.835Z,24.82
2022-09-23T15:28:12.533Z,24.73
2022-09-23T15:33:16.313Z,24.63
2022-09-23T15:38:20.343Z,24.58
2022-09-23T15:43:25.475Z,24.52
2022-09-23T15:48:36.367Z,24.44
2022-09-23T15:53:40.164Z,24.38
2022-09-23T15:58:44.263Z,24.34
2022-09-23T16:03:47.676Z,24.31
2022-09-23T16:08:52.153Z,24.25
2022-09-23T16:14:01.180Z,24.21
2022-09-23T16:19:05.485Z,24.18
2022-09-23T16:24:17.041Z,24.16
2022-09-23T16:29:20.700Z,24.10
2022-09-23T16:34:24.253Z,24.10
2022-09-23T16:39:27.689Z,24.07
2022-09-23T16:44:31.070Z,24.03
2022-09-23T16:49:35.095Z,24.04
2022-09-23T16:54:38.463Z,24.02
2022-09-23T16:59:42.247Z,24.01
2022-09-23T17:04:46.258Z,23.99
2022-09-23T17:09:49.872Z,23.94
2022-09-23T17:14:53.486Z,23.91
2022-09-23T17:19:58.368Z,23.89
2022-09-23T17:25:05.153Z,23.86
2022-09-23T17:30:09.160Z,23.85
2022-09-23T17:35:13.079Z,23.84
2022-09-23T17:40:16.441Z,23.83
2022-09-23T17:45:19.934Z,23.81
2022-09-23T17:50:23.276Z,23.81
2022-09-23T17:55:26.572Z,23.79
2022-09-23T18:00:30.290Z,23.77
2022-09-23T18:05:33.645Z,23.76
2022-09-23T18:10:37.718Z,23.75
2022-09-23T18:15:41.120Z,23.72
2022-09-23T18:20:44.455Z,23.72
2022-09-23T18:25:48.133Z,23.73
2022-09-23T18:30:56.300Z,23.72
2022-09-23T18:36:00.184Z,23.70
2022-09-23T18:41:04.073Z,23.68
2022-09-23T18:46:11.433Z,23.67
2022-09-23T18:51:15.811Z,23.67
2022-09-23T18:56:20.705Z,23.64
2022-09-23T19:01:24.625Z,23.65
2022-09-23T19:06:28.901Z,23.63
2022-09-23T19:11:33.215Z,23.63
2022-09-23T19:16:37.486Z,23.59
2022-09-23T19:21:41.157Z,23.58
2022-09-23T19:26:45.019Z,23.56
2022-09-23T19:31:49.858Z,23.54
2022-09-23T19:36:56.218Z,23.56
2022-09-23T19:42:00.049Z,23.55
2022-09-23T19:47:03.725Z,23.53
2022-09-23T19:52:09.410Z,23.53
2022-09-23T19:57:16.756Z,23.51
2022-09-23T20:02:20.226Z,23.47
2022-09-23T20:07:23.483Z,23.45
2022-09-23T20:12:26.904Z,23.44
2022-09-23T20:17:30.537Z,23.42
2022-09-23T20:22:34.007Z,23.40
2022-09-23T20:27:37.401Z,23.38
2022-09-23T20:32:44.519Z,23.35
2022-09-23T20:37:48.267Z,23.33
2022-09-23T20:42:51.935Z,23.32
2022-09-23T20:47:57.659Z,23.31
2022-09-23T20:53:01.293Z,23.30
2022-09-23T20:58:04.831Z,23.28
2022-09-23T21:03:08.194Z,23.26
2022-09-23T21:08:11.377Z,23.24
2022-09-23T21:13:16.141Z,23.24
2022-09-23T21:18:22.564Z,23.22
2022-09-23T21:23:31.372Z,23.19
2022-09-23T21:28:37.454Z,23.17
2022-09-23T21:33:41.495Z,23.13
2022-09-23T21:38:45.831Z,23.13
2022-09-23T21:43:49.497Z,23.10
2022-09-23T21:48:55.046Z,23.07
2022-09-23T21:53:58.761Z,23.06
2022-09-23T21:59:02.758Z,23.05
2022-09-23T22:04:08.832Z,23.06
2022-09-23T22:09:17.216Z,23.04
2022-09-23T22:14:22.133Z,23.03
2022-09-23T22:19:31.388Z,23.02
2022-09-23T22:24:35.257Z,23.02
2022-09-23T22:29:38.794Z,23.02
2022-09-23T22:34:51.144Z,22.99
2022-09-23T22:39:56.428Z,22.93
2022-09-23T22:45:00.848Z,22.86
2022-09-23T22:50:07.471Z,22.80
2022-09-23T22:55:11.766Z,22.75
2022-09-23T23:00:15.032Z,22.71
2022-09-23T23:05:18.377Z,22.68
2022-09-23T23:10:22.539Z,22.66
2022-09-23T23:15:27.074Z,22.59
2022-09-23T23:20:30.604Z,22.60
2022-09-23T23:25:34.419Z,22.58
2022-09-23T23:30:38.049Z,22.57
2022-09-23T23:35:51.076Z,22.54
2022-09-23T23:40:54.742Z,22.50
2022-09-23T23:45:58.999Z,22.52
2022-09-23T23:51:05.032Z,22.48
2022-09-23T23:56:10.262Z,22.47
